Impacts TAF Board INFO
FOR SITUATIONAL AWARENESS. NOT TO BE USED FOR FLIGHT PLANNING PURPOSES.
IDs:

KEWR - Newark Intl, NJ, US

Issued at 0234 UTC 17 Jul 2018
Updated at 0338 UTC 17 Jul 2018
Potential Impact None Slight Moderate High
Time0251Z 17/04Z 17/05Z 17/06Z 17/07Z 17/08Z 17/09Z 17/10Z 17/11Z 17/12Z 17/13Z 17/14Z 17/15Z 17/16Z>>
Type OBS PRVL PRVL PRVL PRVL PRVL PRVL PRVL PRVL PRVL PRVL PRVL PRVL PRVL
VIS 10 >6 >6 >6 >6 >6 >6 >6 >6 >6 >6 >6 >6 >6
CIG 250 250 250 250 250 250 250 250 250 250 250 250 250 50
Cover BKN BKN BKN BKN BKN BKN BKN BKN BKN BKN BKN BKN BKN BKN
FltCat VFR VFR VFR VFR VFR VFR VFR VFR VFR VFR VFR VFR VFR VFR
WX -- -- -- -- -- -- -- -- -- -- -- -- -- VCSH
WDir 200 190 190 190 190 190 190 190 190 190 190 190 190 220
WSpd 10 7 7 7 7 7 7 7 7 7 7 7 7 10
WGst -- -- -- -- -- -- -- -- -- -- -- -- -- --

Raw TAF
KEWR 170234Z 1703/1806 19007KT P6SM FEW040 BKN250
  FM171600 22010KT P6SM VCSH BKN050
  PROB30 1719/1723 26011G25KT 2SM +TSRA BR SCT025CB OVC050
  FM172300 27009KT P6SM VCSH BKN060
  FM180300 31007KT P6SM SCT050 BKN150


Raw METAR
KEWR 170251Z 20010KT 10SM FEW045 BKN250 28/22 A2990 RMK AO2 SLP124 T02830222 50005
KEWR 170151Z 19008KT 10SM FEW045 BKN250 29/22 A2990 RMK AO2 SLP126 T02940222
KEWR 170051Z 19007KT 10SM FEW045 FEW100 BKN250 30/22 A2989 RMK AO2 SLP120 T03000222

METAR Board
Radar Display
Forecast Discussion

FOR SITUATIONAL AWARENESS. NOT TO BE USED FOR FLIGHT PLANNING PURPOSES.